Time;durP1;ratioP1;P1;durP2;ratioP2;P2;SDS_P1;SDS_P2;PMS_P1;PMS_P2;Temp;Humidity;BMP_temperature;BMP_pressure;BME280_temperature;BME280_humidity;BME280_pressure;Samples;Min_cycle;Max_cycle;Signal;HPM_P1;HPM_P2
2023/01/14 00:01:24;;;;;;;1.77;0.90;;;;;;;4.00;100.00;96811.47;4970285;28;103955;-69
2023/01/14 00:03:51;;;;;;;2.20;0.90;;;;;;;3.99;100.00;96815.13;4972405;28;101647;-69
2023/01/14 00:06:21;;;;;;;2.80;1.23;;;;;;;3.97;100.00;96815.31;4969892;28;105653;-69
2023/01/14 00:08:52;;;;;;;1.40;1.30;;;;;;;3.94;100.00;96814.91;4975011;28;102740;-69
2023/01/14 00:11:45;;;;;;;2.73;0.90;;;;;;;3.97;100.00;96814.50;4970811;28;104059;-69
2023/01/14 00:14:07;;;;;;;1.33;0.80;;;;;;;3.98;100.00;96821.41;4969600;28;105717;-69
2023/01/14 00:16:34;;;;;;;3.63;0.80;;;;;;;3.98;100.00;96816.94;4969783;28;101933;-69
2023/01/14 00:19:02;;;;;;;1.47;0.90;;;;;;;4.00;100.00;96816.75;4971045;28;105215;-69
2023/01/14 00:21:30;;;;;;;0.87;0.87;;;;;;;3.99;100.00;96820.38;4969776;28;104958;-69
2023/01/14 00:23:58;;;;;;;0.70;0.70;;;;;;;4.01;100.00;96821.81;4969635;28;101796;-69
2023/01/14 00:26:25;;;;;;;1.67;1.00;;;;;;;4.00;100.00;96811.47;4971384;28;105316;-69
2023/01/14 00:28:53;;;;;;;0.93;0.90;;;;;;;3.96;100.00;96818.13;4969824;28;105823;-69
2023/01/14 00:31:21;;;;;;;0.70;0.70;;;;;;;3.90;100.00;96818.94;4973126;28;102246;-69
2023/01/14 00:33:50;;;;;;;2.40;0.97;;;;;;;3.85;100.00;96816.91;4968991;28;105756;-68
2023/01/14 00:36:20;;;;;;;1.40;0.87;;;;;;;3.85;100.00;96822.16;4969566;28;102031;-68
2023/01/14 00:38:50;;;;;;;1.53;0.80;;;;;;;3.77;100.00;96824.16;4969773;28;105073;-68
2023/01/14 00:41:19;;;;;;;1.13;0.90;;;;;;;3.67;100.00;96824.50;4969182;28;105128;-68
2023/01/14 00:43:51;;;;;;;1.57;0.87;;;;;;;3.74;100.00;96827.19;4971012;28;101846;-69
2023/01/14 00:46:21;;;;;;;1.33;0.87;;;;;;;3.73;100.00;96828.19;4971381;28;104806;-69
2023/01/14 00:48:48;;;;;;;1.97;0.97;;;;;;;3.70;100.00;96828.56;4968869;28;104380;-69
2023/01/14 00:51:16;;;;;;;1.27;0.70;;;;;;;3.64;100.00;96819.66;4975893;28;102046;-69
2023/01/14 00:53:45;;;;;;;1.57;0.90;;;;;;;3.62;100.00;96826.94;4969799;28;104953;-69
2023/01/14 00:56:16;;;;;;;2.27;1.07;;;;;;;3.62;100.00;96824.31;4971830;28;101794;-69
2023/01/14 00:58:42;;;;;;;2.77;1.00;;;;;;;3.58;100.00;96820.47;4972420;28;103856;-68
2023/01/14 01:01:09;;;;;;;2.93;1.30;;;;;;;3.58;100.00;96827.53;4967904;28;104990;-68
2023/01/14 01:03:39;;;;;;;1.00;0.90;;;;;;;3.55;100.00;96835.81;4969365;28;101869;-68
2023/01/14 01:06:06;;;;;;;2.07;1.10;;;;;;;3.48;100.00;96829.69;4970697;28;102292;-68
2023/01/14 01:08:33;;;;;;;1.23;0.67;;;;;;;3.42;100.00;96827.84;4968458;28;104195;-68
2023/01/14 01:11:02;;;;;;;1.20;0.70;;;;;;;3.44;100.00;96831.13;4971235;28;101712;-68
2023/01/14 01:13:30;;;;;;;1.23;0.60;;;;;;;3.36;100.00;96823.38;4972876;28;104835;-68
2023/01/14 01:16:01;;;;;;;1.60;0.80;;;;;;;3.34;100.00;96828.81;4969927;28;102303;-68
2023/01/14 01:18:28;;;;;;;1.00;0.70;;;;;;;3.36;100.00;96831.25;4970105;28;105353;-68
2023/01/14 01:21:01;;;;;;;0.97;0.80;;;;;;;3.39;100.00;96830.88;4970103;28;102803;-68
2023/01/14 01:23:30;;;;;;;1.90;1.00;;;;;;;3.36;100.00;96826.00;4969532;28;101974;-68
2023/01/14 01:26:01;;;;;;;1.23;0.87;;;;;;;3.43;100.00;96826.84;4969527;28;104985;-68
2023/01/14 01:28:28;;;;;;;1.70;0.80;;;;;;;3.40;100.00;96830.69;4968570;28;105579;-68
2023/01/14 01:31:00;;;;;;;1.23;0.80;;;;;;;3.41;100.00;96828.88;4969045;28;102199;-68
2023/01/14 01:33:28;;;;;;;3.13;1.17;;;;;;;3.42;100.00;96825.22;4969642;28;104973;-68
2023/01/14 01:36:00;;;;;;;2.03;0.80;;;;;;;3.47;100.00;96825.44;4973776;28;101972;-68
2023/01/14 01:38:27;;;;;;;1.97;1.07;;;;;;;3.41;100.00;96821.81;4969189;28;105239;-68
2023/01/14 01:40:53;;;;;;;3.03;1.10;;;;;;;3.33;100.00;96827.22;4968476;28;105013;-68
2023/01/14 01:43:24;;;;;;;1.13;1.03;;;;;;;3.34;100.00;96825.41;4968633;28;101739;-68
2023/01/14 01:45:54;;;;;;;1.67;1.10;;;;;;;3.31;100.00;96828.41;4952920;28;106286;-68
2023/01/14 01:48:27;;;;;;;4.10;1.77;;;;;;;3.27;100.00;96830.63;4969318;28;105799;-68
2023/01/14 01:51:02;;;;;;;1.37;1.00;;;;;;;3.25;100.00;96821.31;4970733;28;101799;-68
2023/01/14 01:53:30;;;;;;;2.53;1.20;;;;;;;3.25;100.00;96824.75;4970323;28;105774;-68
2023/01/14 01:55:58;;;;;;;2.03;1.10;;;;;;;3.22;100.00;96826.97;4971109;28;105319;-68
2023/01/14 01:58:27;;;;;;;2.53;1.00;;;;;;;3.14;100.00;96834.97;4973950;28;101986;-68
2023/01/14 02:00:55;;;;;;;2.63;1.30;;;;;;;3.05;100.00;96846.63;4970802;28;104669;-68
2023/01/14 02:03:30;;;;;;;4.00;1.10;;;;;;;3.05;100.00;96830.88;4971925;28;101992;-68
2023/01/14 02:05:58;;;;;;;2.33;0.83;;;;;;;2.90;100.00;96830.19;4971633;28;104955;-68
2023/01/14 02:08:27;;;;;;;1.90;1.00;;;;;;;2.70;100.00;96829.22;4970620;28;105775;-68
2023/01/14 02:11:20;;;;;;;1.00;0.87;;;;;;;2.50;100.00;96836.13;4968809;28;101832;-68
2023/01/14 02:13:58;;;;;;;2.80;1.10;;;;;;;2.58;100.00;96846.50;4970490;28;104765;-68
2023/01/14 02:16:37;;;;;;;2.90;1.10;;;;;;;2.48;100.00;96846.84;4974312;28;105360;-68
2023/01/14 02:19:38;;;;;;;1.23;1.00;;;;;;;2.51;100.00;96850.91;4974651;28;102125;-68
2023/01/14 02:22:33;;;;;;;2.57;0.70;;;;;;;2.58;100.00;96857.81;4975423;28;104990;-68
2023/01/14 02:25:39;;;;;;;1.70;0.90;;;;;;;2.67;100.00;96854.06;4974787;28;101942;-68
2023/01/14 02:28:20;;;;;;;1.40;1.30;;;;;;;2.78;100.00;96864.03;4971388;28;105158;-68
2023/01/14 02:30:59;;;;;;;1.33;1.00;;;;;;;2.86;100.00;96866.53;4973312;28;105138;-68
2023/01/14 02:33:41;;;;;;;4.20;1.50;;;;;;;2.82;100.00;96865.28;4971889;28;101872;-68
2023/01/14 02:36:22;;;;;;;1.57;1.07;;;;;;;2.84;100.00;96863.28;4971368;28;105752;-68
2023/01/14 02:38:58;;;;;;;1.00;1.00;;;;;;;2.66;100.00;96864.72;4973892;28;103107;-69
2023/01/14 02:44:26;;;;;;;1.27;1.03;;;;;;;2.88;100.00;96863.69;4973992;28;104752;-69
2023/01/14 02:47:00;;;;;;;1.43;0.90;;;;;;;2.73;100.00;96865.63;4977043;28;103074;-68
2023/01/14 02:49:33;;;;;;;1.23;0.90;;;;;;;2.79;100.00;96864.84;4972853;28;105063;-68
2023/01/14 02:52:00;;;;;;;0.97;0.90;;;;;;;2.74;100.00;96856.75;4972374;28;105444;-69
2023/01/14 02:54:30;;;;;;;2.73;0.93;;;;;;;2.75;100.00;96871.50;4972229;28;102061;-69
2023/01/14 02:57:04;;;;;;;2.03;0.80;;;;;;;2.79;100.00;96859.59;4973149;28;104868;-69
2023/01/14 02:59:49;;;;;;;1.67;0.90;;;;;;;2.61;100.00;96867.13;4974356;28;105670;-69
2023/01/14 03:02:48;;;;;;;2.73;1.00;;;;;;;2.75;100.00;96863.63;4972968;28;101908;-69
2023/01/14 03:05:34;;;;;;;3.63;1.40;;;;;;;2.99;100.00;96866.63;4974802;28;103795;-69
2023/01/14 03:08:13;;;;;;;2.80;1.20;;;;;;;3.06;100.00;96850.91;4976977;28;105163;-67
2023/01/14 03:10:47;;;;;;;3.20;0.97;;;;;;;3.67;100.00;96852.66;4975969;28;103848;-68
2023/01/14 03:13:21;;;;;;;2.37;1.00;;;;;;;3.77;100.00;96853.91;4974729;28;102623;-68
2023/01/14 03:15:58;;;;;;;1.80;0.83;;;;;;;3.93;100.00;96845.66;4972557;28;101972;-69
2023/01/14 03:18:35;;;;;;;1.33;0.70;;;;;;;3.87;100.00;96845.66;4974593;28;105744;-69
2023/01/14 03:21:06;;;;;;;1.27;0.90;;;;;;;3.83;100.00;96844.41;4973846;28;105355;-68
2023/01/14 03:23:45;;;;;;;2.93;1.07;;;;;;;3.84;100.00;96856.56;4974571;28;101804;-69
2023/01/14 03:26:13;;;;;;;3.47;2.10;;;;;;;3.84;100.00;96856.56;4973356;28;105436;-69
2023/01/14 03:28:47;;;;;;;3.07;1.80;;;;;;;3.90;100.00;96858.41;4973740;28;105274;-68
2023/01/14 03:31:19;;;;;;;2.23;1.53;;;;;;;3.89;100.00;96868.13;4978085;28;101774;-68
2023/01/14 03:33:51;;;;;;;2.70;1.60;;;;;;;3.91;100.00;96855.56;4972968;28;105451;-68
2023/01/14 03:36:20;;;;;;;1.97;1.13;;;;;;;3.86;100.00;96860.63;4973294;28;102035;-68
2023/01/14 03:38:52;;;;;;;1.93;1.13;;;;;;;3.89;100.00;96851.53;4973638;28;104497;-68
2023/01/14 03:44:16;;;;;;;4.43;1.33;;;;;;;3.84;100.00;96853.94;4972780;28;101914;-68
2023/01/14 03:46:43;;;;;;;1.47;0.90;;;;;;;3.80;100.00;96840.38;4956388;28;104913;-68
2023/01/14 03:49:12;;;;;;;3.23;0.90;;;;;;;3.75;100.00;96848.03;4973053;28;105353;-68
2023/01/14 03:51:45;;;;;;;2.20;1.00;;;;;;;3.76;100.00;96851.47;4972536;28;101893;-68
2023/01/14 03:54:21;;;;;;;2.07;0.90;;;;;;;3.81;100.00;96846.41;4976508;28;102550;-68
2023/01/14 03:56:59;;;;;;;1.40;1.07;;;;;;;3.80;100.00;96850.06;4972162;28;101872;-68
2023/01/14 03:59:36;;;;;;;2.43;0.80;;;;;;;3.88;100.00;96852.53;4973381;28;104398;-68
2023/01/14 04:02:06;;;;;;;4.53;1.00;;;;;;;3.85;100.00;96847.66;4974712;28;103079;-68
2023/01/14 04:04:36;;;;;;;1.63;0.93;;;;;;;3.82;100.00;96853.31;4974066;28;102034;-68
2023/01/14 04:07:03;;;;;;;2.53;1.00;;;;;;;3.81;100.00;96846.41;4957264;28;103964;-67
2023/01/14 04:09:30;;;;;;;3.20;1.00;;;;;;;3.82;100.00;96848.84;4973335;28;105355;-68
2023/01/14 04:11:57;;;;;;;2.30;0.87;;;;;;;3.94;100.00;96842.00;4973904;28;101858;-68
2023/01/14 04:17:10;;;;;;;1.00;1.00;;;;;;;3.88;100.00;96845.44;4976903;28;105405;-68
2023/01/14 04:19:41;;;;;;;1.73;0.70;;;;;;;3.88;100.00;96850.69;4973675;28;104902;-68
2023/01/14 04:22:09;;;;;;;0.97;0.80;;;;;;;3.89;100.00;96848.88;4972691;28;105684;-67
2023/01/14 04:24:35;;;;;;;1.50;0.70;;;;;;;3.88;100.00;96849.91;4970287;28;101961;-68
2023/01/14 04:27:02;;;;;;;1.40;1.10;;;;;;;3.72;100.00;96845.78;4971622;28;103415;-68
2023/01/14 04:29:29;;;;;;;1.53;0.90;;;;;;;3.59;100.00;96843.09;4972018;28;105128;-68
2023/01/14 04:31:58;;;;;;;0.63;0.63;;;;;;;3.59;100.00;96850.19;4973487;28;101803;-68
2023/01/14 04:34:25;;;;;;;1.33;0.80;;;;;;;3.51;100.00;96850.34;4971710;28;105177;-68
2023/01/14 04:36:54;;;;;;;2.40;1.00;;;;;;;3.42;100.00;96841.00;4969842;28;105682;-68
2023/01/14 04:39:20;;;;;;;2.17;0.87;;;;;;;3.43;100.00;96838.19;4975663;28;101871;-68
2023/01/14 04:44:32;;;;;;;1.87;1.07;;;;;;;3.34;100.00;96843.81;4972662;28;101819;-68
2023/01/14 04:47:00;;;;;;;0.77;0.63;;;;;;;3.29;100.00;96854.09;4972123;28;103854;-68
2023/01/14 04:49:27;;;;;;;2.97;0.97;;;;;;;3.38;100.00;96845.03;4971888;28;105233;-68
2023/01/14 04:51:55;;;;;;;1.23;0.70;;;;;;;3.33;100.00;96836.94;4972177;28;101854;-68
2023/01/14 04:54:26;;;;;;;0.77;0.77;;;;;;;3.32;100.00;96840.53;4972134;28;103291;-68
2023/01/14 04:56:52;;;;;;;1.07;0.93;;;;;;;3.24;100.00;96830.19;4970190;28;103786;-68
2023/01/14 04:59:19;;;;;;;0.70;0.63;;;;;;;3.17;100.00;96845.91;4971286;28;101976;-68
2023/01/14 05:01:46;;;;;;;2.33;2.13;;;;;;;3.23;100.00;96844.34;4974604;28;105324;-68
2023/01/14 05:04:14;;;;;;;4.23;2.40;;;;;;;3.31;100.00;96836.28;4972346;28;101763;-68
2023/01/14 05:06:41;;;;;;;4.20;2.20;;;;;;;3.25;100.00;96840.53;4970934;28;105564;-68
2023/01/14 05:09:09;;;;;;;1.67;1.57;;;;;;;3.15;100.00;96834.78;4969388;28;105691;-68
2023/01/14 05:11:36;;;;;;;3.37;2.53;;;;;;;3.19;100.00;96833.41;4972404;28;101927;-68
2023/01/14 05:14:03;;;;;;;1.93;1.40;;;;;;;3.26;100.00;96843.94;4972196;28;105122;-68
2023/01/14 05:16:30;;;;;;;3.53;1.40;;;;;;;3.31;100.00;96838.91;4970673;28;105028;-68
2023/01/14 05:18:57;;;;;;;2.43;1.27;;;;;;;3.30;100.00;96829.41;4972654;28;101943;-68
2023/01/14 05:21:25;;;;;;;4.97;1.33;;;;;;;3.25;100.00;96837.06;4975815;28;101706;-68
2023/01/14 05:23:52;;;;;;;1.53;1.37;;;;;;;3.23;100.00;96837.25;4970805;28;101954;-68
2023/01/14 05:26:20;;;;;;;1.70;1.00;;;;;;;3.26;100.00;96836.06;4972046;28;105251;-68
2023/01/14 05:28:48;;;;;;;1.93;1.20;;;;;;;3.30;100.00;96834.66;4969783;28;105405;-68
2023/01/14 05:31:15;;;;;;;2.23;1.20;;;;;;;3.30;100.00;96832.88;4969113;28;101969;-68
2023/01/14 05:33:43;;;;;;;1.53;1.43;;;;;;;3.29;100.00;96830.44;4971221;28;103690;-68
2023/01/14 05:36:10;;;;;;;1.83;1.30;;;;;;;3.26;100.00;96841.31;4969027;28;105602;-68
2023/01/14 05:38:37;;;;;;;1.53;1.43;;;;;;;3.29;100.00;96838.31;4969084;28;102028;-68
2023/01/14 05:41:04;;;;;;;1.63;1.53;;;;;;;3.24;100.00;96832.81;4970380;28;104787;-68
2023/01/14 05:46:21;;;;;;;1.87;1.20;;;;;;;3.24;100.00;96836.28;4970243;28;101816;-68
2023/01/14 05:48:48;;;;;;;1.80;1.27;;;;;;;3.24;100.00;96830.19;4973645;28;105188;-68
2023/01/14 05:51:16;;;;;;;2.20;1.53;;;;;;;3.26;100.00;96836.06;4974905;28;101785;-68
2023/01/14 05:53:44;;;;;;;1.57;1.33;;;;;;;3.30;100.00;96827.59;4976210;28;104993;-68
2023/01/14 05:56:11;;;;;;;3.47;2.40;;;;;;;3.26;100.00;96831.63;4975230;28;105301;-68
2023/01/14 05:58:39;;;;;;;1.37;1.27;;;;;;;3.34;100.00;96833.28;4975675;28;101878;-69
2023/01/14 06:06:43;;;;;;;1.27;1.17;;;;;;;3.23;100.00;96832.00;4978072;28;101857;-69
2023/01/14 06:09:12;;;;;;;2.77;1.30;;;;;;;3.31;100.00;96841.53;4974567;28;102724;-69
2023/01/14 06:11:41;;;;;;;1.07;1.07;;;;;;;3.27;100.00;96827.19;4974973;28;101952;-69
2023/01/14 06:14:09;;;;;;;1.80;1.30;;;;;;;3.26;100.00;96829.00;4975403;28;103778;-69
2023/01/14 06:16:39;;;;;;;1.97;1.40;;;;;;;3.27;100.00;96835.06;4973217;28;105388;-69
2023/01/14 06:19:07;;;;;;;1.47;1.37;;;;;;;3.25;100.00;96830.00;4973276;28;102406;-69
2023/01/14 06:21:35;;;;;;;1.33;1.20;;;;;;;3.21;100.00;96827.94;4974262;28;105085;-69
2023/01/14 06:24:05;;;;;;;1.47;1.37;;;;;;;3.19;100.00;96832.59;4974738;28;105473;-69
2023/01/14 06:26:34;;;;;;;2.17;1.23;;;;;;;3.16;100.00;96825.91;4974182;28;101689;-69
2023/01/14 06:29:03;;;;;;;2.10;1.50;;;;;;;3.20;100.00;96828.94;4977860;28;105278;-69
2023/01/14 06:31:32;;;;;;;1.57;1.30;;;;;;;3.18;100.00;96830.97;4974337;28;102344;-69
2023/01/14 06:34:01;;;;;;;2.03;1.47;;;;;;;3.01;100.00;96832.28;4973399;28;105202;-69
2023/01/14 06:36:30;;;;;;;1.60;1.10;;;;;;;2.77;100.00;96824.84;4974528;28;105502;-68
2023/01/14 06:38:57;;;;;;;1.83;1.30;;;;;;;2.79;100.00;96826.25;4974414;28;101866;-68
2023/01/14 06:41:24;;;;;;;2.80;1.30;;;;;;;2.72;100.00;96827.22;4974263;28;104730;-68
2023/01/14 06:43:51;;;;;;;1.37;1.27;;;;;;;2.69;100.00;96823.16;4973859;28;104126;-68
2023/01/14 06:46:19;;;;;;;3.57;1.70;;;;;;;2.61;100.00;96815.44;4974111;28;101815;-68
2023/01/14 06:48:47;;;;;;;2.00;1.40;;;;;;;2.40;100.00;96818.09;4971978;28;105048;-68
2023/01/14 06:51:17;;;;;;;1.60;1.50;;;;;;;2.53;100.00;96807.72;4967974;28;103970;-68
2023/01/14 06:53:43;;;;;;;2.10;1.40;;;;;;;2.49;100.00;96811.72;4955039;28;105202;-68
2023/01/14 06:56:13;;;;;;;4.73;1.40;;;;;;;2.47;100.00;96807.66;4954526;28;104995;-68
2023/01/14 06:58:40;;;;;;;28.00;20.83;;;;;;;2.43;100.00;96806.41;4957442;28;102232;-68
2023/01/14 07:01:09;;;;;;;21.37;17.10;;;;;;;2.50;100.00;96802.00;4954202;28;105621;-68
2023/01/14 07:03:36;;;;;;;19.80;15.17;;;;;;;2.46;100.00;96808.66;4953834;28;105215;-68
2023/01/14 07:06:05;;;;;;;5.23;4.03;;;;;;;2.52;100.00;96810.53;4954146;28;101874;-68
2023/01/14 07:08:33;;;;;;;3.30;3.00;;;;;;;2.62;100.00;96813.63;4954770;28;105041;-68
2023/01/14 07:11:00;;;;;;;12.23;8.77;;;;;;;2.47;100.00;96812.91;4954572;28;105338;-68
2023/01/14 07:13:27;;;;;;;8.43;6.60;;;;;;;2.56;100.00;96806.53;4958193;28;101882;-68
2023/01/14 07:15:53;;;;;;;6.03;5.43;;;;;;;2.65;100.00;96807.97;4954041;28;105178;-68
2023/01/14 07:18:20;;;;;;;4.83;4.20;;;;;;;2.70;100.00;96806.41;4954763;28;101851;-68
2023/01/14 07:20:48;;;;;;;8.37;6.13;;;;;;;2.77;100.00;96809.91;4971117;28;105265;-68
2023/01/14 07:23:16;;;;;;;6.90;5.70;;;;;;;2.87;100.00;96801.69;4970301;28;105116;-68
2023/01/14 07:25:43;;;;;;;8.40;5.00;;;;;;;2.96;100.00;96803.16;4954492;28;101825;-68
2023/01/14 07:28:09;;;;;;;11.07;9.23;;;;;;;2.97;100.00;96789.84;4954411;28;104980;-68
2023/01/14 07:30:36;;;;;;;7.90;6.97;;;;;;;3.03;100.00;96782.97;4971389;28;102835;-68
2023/01/14 07:33:03;;;;;;;6.77;5.83;;;;;;;3.06;100.00;96788.66;4975142;28;101925;-68
2023/01/14 07:35:31;;;;;;;5.73;5.10;;;;;;;3.18;100.00;96788.94;4953234;28;105140;-68
2023/01/14 07:38:00;;;;;;;5.93;5.43;;;;;;;3.25;100.00;96782.69;4954156;28;101926;-68
2023/01/14 07:40:28;;;;;;;5.53;4.17;;;;;;;3.30;100.00;96784.72;4953931;28;105654;-68
2023/01/14 07:42:58;;;;;;;4.40;4.00;;;;;;;3.36;100.00;96783.94;4970908;28;103093;-68
2023/01/14 07:45:25;;;;;;;4.97;4.50;;;;;;;3.44;100.00;96781.16;4971689;28;101668;-68
2023/01/14 07:47:52;;;;;;;4.90;4.50;;;;;;;3.42;100.00;96776.09;4953879;28;105186;-68
2023/01/14 07:50:22;;;;;;;4.60;4.17;;;;;;;3.51;100.00;96772.31;4953381;28;105781;-68
2023/01/14 07:52:53;;;;;;;3.93;3.63;;;;;;;3.50;100.00;96775.13;4953863;28;101969;-68
2023/01/14 07:55:20;;;;;;;3.67;3.37;;;;;;;3.49;100.00;96770.88;4956975;28;105234;-69
2023/01/14 07:57:49;;;;;;;4.57;3.70;;;;;;;3.54;100.00;96760.56;4954052;28;101900;-69
2023/01/14 08:00:17;;;;;;;4.43;3.87;;;;;;;3.61;100.00;96754.31;4970210;28;105347;-69
2023/01/14 08:02:44;;;;;;;4.03;3.53;;;;;;;3.67;100.00;96753.50;4953214;28;105375;-69
2023/01/14 08:05:11;;;;;;;4.20;3.77;;;;;;;3.78;100.00;96755.56;4953955;28;102119;-69
2023/01/14 08:07:39;;;;;;;4.40;4.00;;;;;;;3.89;100.00;96754.19;4953472;28;104825;-69
2023/01/14 08:10:07;;;;;;;3.90;3.50;;;;;;;3.88;100.00;96753.34;4952747;28;105046;-69
2023/01/14 08:12:35;;;;;;;3.77;3.43;;;;;;;4.02;100.00;96756.81;4953376;28;101878;-69
2023/01/14 08:15:05;;;;;;;3.90;3.50;;;;;;;4.19;100.00;96758.06;4953596;28;105297;-69
2023/01/14 08:17:32;;;;;;;3.93;3.60;;;;;;;4.31;100.00;96754.63;4956433;28;105637;-69
2023/01/14 08:19:59;;;;;;;4.67;3.57;;;;;;;4.53;100.00;96745.50;4953309;28;105010;-69
2023/01/14 08:22:28;;;;;;;3.57;3.10;;;;;;;4.77;100.00;96749.31;4953002;28;105409;-69
2023/01/14 08:24:57;;;;;;;3.30;3.00;;;;;;;4.87;100.00;96744.44;4953478;28;101987;-69
2023/01/14 08:27:23;;;;;;;4.57;3.30;;;;;;;4.85;100.00;96739.38;4953582;28;104827;-69
2023/01/14 08:29:52;;;;;;;3.90;3.30;;;;;;;5.08;100.00;96747.63;4968448;28;104194;-64
2023/01/14 08:32:20;;;;;;;3.73;3.43;;;;;;;5.10;100.00;96755.31;4953442;28;101984;-64
2023/01/14 08:34:47;;;;;;;4.23;3.27;;;;;;;5.25;100.00;96748.78;4948018;28;105323;-62
2023/01/14 08:37:14;;;;;;;3.23;2.73;;;;;;;5.17;100.00;96733.22;4949135;28;105319;-63
2023/01/14 08:39:42;;;;;;;3.20;2.90;;;;;;;5.08;100.00;96734.44;4954677;28;101878;-63
2023/01/14 08:42:09;;;;;;;3.40;2.87;;;;;;;5.02;100.00;96729.22;4932971;28;105700;-61
2023/01/14 08:44:36;;;;;;;2.90;2.70;;;;;;;5.05;100.00;96740.16;4933326;28;101818;-60
2023/01/14 08:47:03;;;;;;;4.50;3.17;;;;;;;5.18;100.00;96736.66;4933377;28;104937;-60
2023/01/14 08:49:32;;;;;;;3.70;3.00;;;;;;;5.36;100.00;96729.66;4916355;28;107115;-60
2023/01/14 08:52:00;;;;;;;3.17;2.87;;;;;;;5.62;100.00;96729.56;4933321;28;101846;-62
2023/01/14 08:54:28;;;;;;;2.87;2.67;;;;;;;5.69;100.00;96717.16;4933058;28;104851;-62
2023/01/14 08:56:56;;;;;;;2.40;2.20;;;;;;;5.65;100.00;96712.50;4932665;28;105119;-61
2023/01/14 08:59:23;;;;;;;2.90;2.20;;;;;;;5.83;100.00;96702.09;4933121;28;102260;-60
2023/01/14 09:01:50;;;;;;;2.30;2.10;;;;;;;5.84;100.00;96706.34;4953460;28;103120;-60
2023/01/14 09:04:21;;;;;;;7.33;3.17;;;;;;;5.92;100.00;96704.25;4933071;28;101880;-61
2023/01/14 09:17:59;;;;;;;3.53;2.53;;;;;;;6.49;100.00;96684.69;4932185;28;104136;-60
2023/01/14 09:20:31;;;;;;;2.87;2.40;;;;;;;6.40;100.00;96676.25;4932948;28;101892;-60
2023/01/14 09:23:03;;;;;;;3.27;2.97;;;;;;;6.34;100.00;96676.28;4933654;28;105359;-60
2023/01/14 09:25:30;;;;;;;3.07;2.77;;;;;;;6.31;100.00;96672.25;4946758;28;101883;-60
2023/01/14 09:27:57;;;;;;;2.97;2.73;;;;;;;6.19;100.00;96668.69;4955840;28;105004;-60
2023/01/14 09:30:24;;;;;;;3.20;2.90;;;;;;;6.40;100.00;96664.84;4955187;28;105676;-60
2023/01/14 09:32:53;;;;;;;2.80;2.60;;;;;;;6.58;100.00;96655.13;4955617;28;102015;-60
2023/01/14 09:35:20;;;;;;;4.23;2.70;;;;;;;6.53;100.00;96659.44;4955241;28;105406;-60
2023/01/14 09:37:47;;;;;;;3.20;2.90;;;;;;;6.61;100.00;96656.53;4955079;28;105584;-60
2023/01/14 09:40:15;;;;;;;2.60;2.40;;;;;;;6.68;100.00;96655.44;4955444;28;101780;-60
2023/01/14 09:42:47;;;;;;;2.53;2.33;;;;;;;6.88;100.00;96656.00;4972686;28;102846;-60
2023/01/14 09:45:16;;;;;;;2.30;2.17;;;;;;;6.90;100.00;96653.97;4958455;28;105782;-60
2023/01/14 09:47:44;;;;;;;2.20;2.10;;;;;;;7.04;100.00;96651.97;4955458;28;104155;-60
2023/01/14 09:50:16;;;;;;;2.73;2.40;;;;;;;7.23;100.00;96650.91;4954401;28;105104;-60
2023/01/14 09:53:04;;;;;;;2.87;2.30;;;;;;;7.36;100.00;96642.81;4955253;28;101849;-60
2023/01/14 09:55:40;;;;;;;2.77;2.37;;;;;;;7.26;100.00;96634.59;4955296;28;105484;-60
2023/01/14 09:58:13;;;;;;;2.37;2.17;;;;;;;7.18;100.00;96627.78;4954760;28;104311;-60
2023/01/14 10:00:48;;;;;;;2.63;2.40;;;;;;;7.23;100.00;96627.09;4955330;28;102069;-60
2023/01/14 10:03:28;;;;;;;2.20;2.00;;;;;;;7.38;100.00;96623.06;4955132;28;103721;-60
2023/01/14 10:05:59;;;;;;;2.00;1.80;;;;;;;7.40;100.00;96617.50;4954492;28;104094;-60
2023/01/14 10:08:28;;;;;;;2.30;2.10;;;;;;;7.47;100.00;96610.31;4958302;28;101996;-60
2023/01/14 10:10:57;;;;;;;2.50;2.30;;;;;;;7.61;100.00;96601.94;4971940;28;102612;-60
2023/01/14 10:13:28;;;;;;;2.67;2.00;;;;;;;7.77;100.00;96603.94;4954764;28;101938;-60
2023/01/14 10:15:59;;;;;;;4.47;3.50;;;;;;;7.92;100.00;96598.22;4972884;28;102262;-60
2023/01/14 10:18:32;;;;;;;2.97;1.97;;;;;;;8.02;100.00;96582.56;4972278;28;102555;-60
2023/01/14 10:21:01;;;;;;;3.50;2.73;;;;;;;7.82;100.00;96590.84;4955795;28;102004;-60
2023/01/14 10:23:33;;;;;;;2.30;2.10;;;;;;;7.87;100.00;96584.84;4972642;28;103850;-60
2023/01/14 10:26:03;;;;;;;1.97;1.87;;;;;;;7.97;100.00;96579.78;4972162;28;102618;-60
2023/01/14 10:28:31;;;;;;;1.80;1.70;;;;;;;8.02;100.00;96577.28;4972424;28;101851;-60
2023/01/14 10:31:02;;;;;;;1.53;1.43;;;;;;;8.12;100.00;96574.88;4957582;28;105247;-60
2023/01/14 10:33:30;;;;;;;1.53;1.43;;;;;;;8.27;100.00;96572.56;4972440;28;102284;-60
2023/01/14 10:35:59;;;;;;;1.67;1.57;;;;;;;8.12;100.00;96565.06;4954156;28;105824;-60
2023/01/14 10:38:28;;;;;;;1.70;1.60;;;;;;;8.31;100.00;96560.47;4971767;28;102612;-60
2023/01/14 10:40:59;;;;;;;2.10;1.90;;;;;;;8.48;100.00;96553.44;4954810;28;101945;-60
2023/01/14 10:43:33;;;;;;;1.80;1.70;;;;;;;8.72;100.00;96552.34;4972105;28;101811;-60
2023/01/14 10:46:00;;;;;;;1.40;1.30;;;;;;;8.73;100.00;96546.78;4971767;28;102764;-60
2023/01/14 10:48:34;;;;;;;2.20;1.80;;;;;;;8.55;100.00;96531.06;4954455;28;101980;-60
2023/01/14 10:51:49;;;;;;;1.73;1.63;;;;;;;8.57;100.00;96520.22;4972479;28;102959;-60
2023/01/14 10:54:17;;;;;;;1.90;1.80;;;;;;;8.63;100.00;96522.75;4957077;28;105399;-60
2023/01/14 10:56:48;;;;;;;2.27;1.90;;;;;;;8.48;100.00;96513.66;4972213;28;103352;-60
2023/01/14 10:59:50;;;;;;;2.37;1.70;;;;;;;8.66;100.00;96514.31;4971535;28;102664;-60
2023/01/14 11:02:33;;;;;;;1.87;1.77;;;;;;;8.76;100.00;96500.44;4954348;28;101736;-60
2023/01/14 11:05:00;;;;;;;1.83;1.60;;;;;;;8.80;100.00;96496.28;4972169;28;102391;-60
2023/01/14 11:07:30;;;;;;;1.70;1.60;;;;;;;8.91;100.00;96493.59;4971396;28;102496;-60
2023/01/14 11:10:00;;;;;;;1.27;1.20;;;;;;;8.95;100.00;96486.75;4971477;28;101864;-60
2023/01/14 11:12:33;;;;;;;1.10;1.00;;;;;;;9.21;100.00;96482.75;4953899;28;105649;-60
2023/01/14 11:15:02;;;;;;;1.27;0.90;;;;;;;9.27;100.00;96466.66;4971338;28;102926;-60
2023/01/14 11:17:31;;;;;;;1.03;0.93;;;;;;;9.34;100.00;96462.00;4957338;28;102494;-60
2023/01/14 11:20:23;;;;;;;1.00;0.90;;;;;;;9.35;100.00;96452.19;4953349;28;103931;-60
2023/01/14 11:22:58;;;;;;;1.00;1.00;;;;;;;9.60;100.00;96456.03;4971139;28;101841;-60
2023/01/14 11:25:25;;;;;;;1.17;1.00;;;;;;;9.62;100.00;96450.50;4954145;28;105604;-60
2023/01/14 11:27:53;;;;;;;1.43;1.33;;;;;;;9.51;100.00;96438.09;4953387;28;103992;-60
2023/01/14 11:30:24;;;;;;;1.27;1.17;;;;;;;9.38;100.00;96436.56;4971656;28;101768;-60
2023/01/14 11:32:54;;;;;;;1.30;1.20;;;;;;;9.57;100.00;96434.47;4953772;28;105597;-60
2023/01/14 11:35:23;;;;;;;1.50;1.40;;;;;;;9.56;100.00;96432.88;4953028;28;104976;-60
2023/01/14 11:37:53;;;;;;;1.20;1.20;;;;;;;9.56;100.00;96435.53;4974718;28;101819;-60
2023/01/14 11:41:28;;;;;;;1.33;1.33;;;;;;;9.65;100.00;96421.59;4952967;28;103783;-60
2023/01/14 11:43:14;;;;;;;1.43;1.30;;;;;;;9.67;100.00;96414.22;4953135;28;102147;-60
2023/01/14 11:45:43;;;;;;;1.17;1.10;;;;;;;9.57;100.00;96410.59;4970717;28;102284;-60
2023/01/14 11:48:25;;;;;;;1.93;1.60;;;;;;;9.77;100.00;96406.38;4970544;28;102693;-60
2023/01/14 11:50:58;;;;;;;1.67;1.30;;;;;;;9.98;100.00;96404.81;4953541;28;102665;-60
2023/01/14 11:53:26;;;;;;;1.30;1.30;;;;;;;10.02;100.00;96395.28;4971466;28;102374;-60
2023/01/14 11:55:55;;;;;;;1.37;1.27;;;;;;;9.96;100.00;96391.78;4936400;28;105009;-60
2023/01/14 11:58:25;;;;;;;1.97;1.27;;;;;;;9.72;100.00;96389.56;4971061;28;101871;-60
2023/01/14 12:00:56;;;;;;;1.60;1.50;;;;;;;9.80;100.00;96382.00;4956193;28;103850;-60
2023/01/14 12:03:35;;;;;;;1.43;1.33;;;;;;;10.12;100.00;96375.00;4953511;28;102436;-60
2023/01/14 12:06:06;;;;;;;1.13;1.13;;;;;;;10.03;100.00;96362.38;4953492;28;104780;-60
2023/01/14 12:08:37;;;;;;;1.40;1.30;;;;;;;9.68;100.00;96365.38;4951361;28;103981;-60
2023/01/14 12:11:07;;;;;;;1.30;1.30;;;;;;;9.72;100.00;96355.88;4951053;28;102207;-60